THY6GR LTFM-LBSF
Flight info
| Callsign | THY6GR |
|---|---|
| Flight time | N/A |
| Altitude | 36000 |
| Route | VADEN1D/35L VADEN N618 GOL |
| Aircraft | B738/M-SDE2E3FGHIRWXY/LB1 |
Departure
| Time | N/A |
|---|---|
| Airport | İstanbul Airport (LTFM) |
Arrival
| Time | 2026-04-30 17:55 |
|---|---|
| Airport | Sofia Airport (LBSF) |
| Time | Latitude | Longitude | Altitude | Speed | Heading |
|---|---|---|---|---|---|
| 2026-04-30 17:39 | 43.08427 | 24.25211 | 20750 ft | 271 kts | 269° |
| 2026-04-30 17:41 | 43.00156 | 24.06133 | 17650 ft | 311 kts | 235° |
| 2026-04-30 17:42 | 42.97455 | 24.01597 | 16875 ft | 305 kts | 235° |
| 2026-04-30 17:42 | 42.93518 | 23.94921 | 15666 ft | 297 kts | 236° |
| 2026-04-30 17:43 | 42.90958 | 23.90600 | 14881 ft | 293 kts | 236° |
| 2026-04-30 17:44 | 42.87165 | 23.84205 | 13764 ft | 286 kts | 236° |
| 2026-04-30 17:44 | 42.82721 | 23.78746 | 12375 ft | 298 kts | 197° |
| 2026-04-30 17:46 | 42.75274 | 23.84163 | 10761 ft | 274 kts | 93° |
| 2026-04-30 17:47 | 42.74640 | 23.94153 | 9899 ft | 257 kts | 100° |
| 2026-04-30 17:48 | 42.68479 | 23.97348 | 9625 ft | 280 kts | 209° |
| 2026-04-30 17:48 | 42.66454 | 23.90665 | 7742 ft | 275 kts | 281° |
| 2026-04-30 17:49 | 42.67247 | 23.79919 | 5377 ft | 287 kts | 278° |
| 2026-04-30 17:50 | 42.67883 | 23.70193 | 4465 ft | 240 kts | 279° |
| 2026-04-30 17:51 | 42.68257 | 23.64012 | 4873 ft | 219 kts | 281° |
| 2026-04-30 17:52 | 42.68607 | 23.58425 | 3917 ft | 190 kts | 279° |
| 2026-04-30 17:53 | 42.69096 | 23.50656 | 2776 ft | 151 kts | 278° |
| 2026-04-30 17:54 | 42.69440 | 23.45104 | 1962 ft | 149 kts | 278° |
| 2026-04-30 17:55 | 42.69543 | 23.41446 | 1740 ft | 15 kts | 245° |
| 2026-04-30 17:56 | 42.69292 | 23.41164 | 1744 ft | 10 kts | 189° |
| 2026-04-30 17:57 | 42.69098 | 23.41207 | 1745 ft | 8 kts | 125° |